sensor_id;sensor_type;location;lat;lon;timestamp;pressure;altitude;pressure_sealevel;temperature;humidity
23589;BME280;11972;48.078;11.876;2024-02-15T00:02:54;96037.72;;;7.08;100.00
23589;BME280;11972;48.078;11.876;2024-02-15T00:06:54;96033.41;;;7.07;100.00
23589;BME280;11972;48.078;11.876;2024-02-15T00:10:55;96041.28;;;7.07;100.00
23589;BME280;11972;48.078;11.876;2024-02-15T00:14:55;96032.59;;;7.06;100.00
23589;BME280;11972;48.078;11.876;2024-02-15T00:18:58;96032.44;;;7.08;100.00
23589;BME280;11972;48.078;11.876;2024-02-15T00:22:59;96027.19;;;7.08;100.00
23589;BME280;11972;48.078;11.876;2024-02-15T00:27:00;96018.34;;;7.09;100.00
23589;BME280;11972;48.078;11.876;2024-02-15T00:31:01;96025.53;;;7.07;100.00
23589;BME280;11972;48.078;11.876;2024-02-15T00:35:04;96017.81;;;7.05;100.00
23589;BME280;11972;48.078;11.876;2024-02-15T00:39:07;96017.81;;;7.05;100.00
23589;BME280;11972;48.078;11.876;2024-02-15T00:43:08;96027.19;;;7.08;100.00
23589;BME280;11972;48.078;11.876;2024-02-15T00:47:11;96033.81;;;7.12;100.00
23589;BME280;11972;48.078;11.876;2024-02-15T00:51:13;96024.66;;;7.16;100.00
23589;BME280;11972;48.078;11.876;2024-02-15T00:55:13;96018.25;;;7.18;100.00
23589;BME280;11972;48.078;11.876;2024-02-15T00:59:13;96026.13;;;7.18;100.00
23589;BME280;11972;48.078;11.876;2024-02-15T01:03:15;96021.41;;;7.22;100.00
23589;BME280;11972;48.078;11.876;2024-02-15T01:07:15;96022.09;;;7.24;100.00
23589;BME280;11972;48.078;11.876;2024-02-15T01:11:16;96018.50;;;7.25;100.00
23589;BME280;11972;48.078;11.876;2024-02-15T01:15:16;96019.31;;;7.26;100.00
23589;BME280;11972;48.078;11.876;2024-02-15T01:19:18;96021.56;;;7.20;100.00
23589;BME280;11972;48.078;11.876;2024-02-15T01:23:18;96014.72;;;7.10;100.00
23589;BME280;11972;48.078;11.876;2024-02-15T01:27:19;96016.59;;;7.00;100.00
23589;BME280;11972;48.078;11.876;2024-02-15T01:31:19;96019.91;;;7.02;100.00
23589;BME280;11972;48.078;11.876;2024-02-15T01:35:20;96020.06;;;7.00;100.00
23589;BME280;11972;48.078;11.876;2024-02-15T01:39:20;96009.69;;;6.99;100.00
23589;BME280;11972;48.078;11.876;2024-02-15T01:43:21;96010.38;;;7.01;100.00
23589;BME280;11972;48.078;11.876;2024-02-15T01:47:21;95999.56;;;7.04;100.00
23589;BME280;11972;48.078;11.876;2024-02-15T01:51:23;95991.81;;;7.02;100.00
23589;BME280;11972;48.078;11.876;2024-02-15T01:55:24;95993.53;;;6.93;100.00
23589;BME280;11972;48.078;11.876;2024-02-15T01:59:25;96000.50;;;6.85;100.00
23589;BME280;11972;48.078;11.876;2024-02-15T02:03:25;95999.69;;;6.84;100.00
23589;BME280;11972;48.078;11.876;2024-02-15T02:07:26;95983.94;;;6.84;100.00
23589;BME280;11972;48.078;11.876;2024-02-15T02:11:26;95988.50;;;6.82;100.00
23589;BME280;11972;48.078;11.876;2024-02-15T02:15:26;95984.50;;;6.78;100.00
23589;BME280;11972;48.078;11.876;2024-02-15T02:19:28;95985.41;;;6.69;100.00
23589;BME280;11972;48.078;11.876;2024-02-15T02:23:28;95985.50;;;6.50;100.00
23589;BME280;11972;48.078;11.876;2024-02-15T02:27:35;95989.09;;;6.49;100.00
23589;BME280;11972;48.078;11.876;2024-02-15T02:31:38;95984.63;;;6.59;100.00
23589;BME280;11972;48.078;11.876;2024-02-15T02:35:39;95982.41;;;6.64;100.00
23589;BME280;11972;48.078;11.876;2024-02-15T02:39:41;95985.25;;;6.70;100.00
23589;BME280;11972;48.078;11.876;2024-02-15T02:43:43;95981.22;;;6.76;100.00
23589;BME280;11972;48.078;11.876;2024-02-15T02:47:43;95982.03;;;6.77;100.00
23589;BME280;11972;48.078;11.876;2024-02-15T02:51:43;95987.84;;;6.80;100.00
23589;BME280;11972;48.078;11.876;2024-02-15T02:55:44;95983.94;;;6.84;100.00
23589;BME280;11972;48.078;11.876;2024-02-15T02:59:45;95984.75;;;6.85;100.00
23589;BME280;11972;48.078;11.876;2024-02-15T03:03:45;95991.06;;;6.92;100.00
23589;BME280;11972;48.078;11.876;2024-02-15T03:07:46;95987.72;;;7.00;100.00
23589;BME280;11972;48.078;11.876;2024-02-15T03:11:46;95988.75;;;7.07;100.00
23589;BME280;11972;48.078;11.876;2024-02-15T03:15:46;95985.16;;;7.08;100.00
23589;BME280;11972;48.078;11.876;2024-02-15T03:19:51;95979.91;;;7.08;100.00
23589;BME280;11972;48.078;11.876;2024-02-15T03:23:51;95976.97;;;7.11;100.00
23589;BME280;11972;48.078;11.876;2024-02-15T03:27:52;95985.91;;;7.18;100.00
23589;BME280;11972;48.078;11.876;2024-02-15T03:31:53;95982.84;;;7.22;100.00
23589;BME280;11972;48.078;11.876;2024-02-15T03:35:54;95984.03;;;7.28;100.00
23589;BME280;11972;48.078;11.876;2024-02-15T03:39:59;95993.25;;;7.32;100.00
23589;BME280;11972;48.078;11.876;2024-02-15T03:43:59;95991.59;;;7.31;100.00
23589;BME280;11972;48.078;11.876;2024-02-15T03:48:00;95987.91;;;7.24;100.00
23589;BME280;11972;48.078;11.876;2024-02-15T03:52:00;95996.72;;;7.15;100.00
23589;BME280;11972;48.078;11.876;2024-02-15T03:56:00;95988.75;;;7.07;100.00
23589;BME280;11972;48.078;11.876;2024-02-15T04:00:01;95985.66;;;6.93;100.00
23589;BME280;11972;48.078;11.876;2024-02-15T04:04:01;95985.28;;;6.88;100.00
23589;BME280;11972;48.078;11.876;2024-02-15T04:08:03;95984.03;;;6.92;100.00
23589;BME280;11972;48.078;11.876;2024-02-15T04:12:05;95984.31;;;6.89;100.00
23589;BME280;11972;48.078;11.876;2024-02-15T04:16:07;95977.31;;;6.80;100.00
23589;BME280;11972;48.078;11.876;2024-02-15T04:20:08;95986.75;;;6.73;100.00
23589;BME280;11972;48.078;11.876;2024-02-15T04:24:09;95991.19;;;6.72;100.00
23589;BME280;11972;48.078;11.876;2024-02-15T04:28:09;95987.75;;;6.72;100.00
23589;BME280;11972;48.078;11.876;2024-02-15T04:32:10;96000.56;;;6.75;100.00
23589;BME280;11972;48.078;11.876;2024-02-15T04:36:11;95993.13;;;6.70;100.00
23589;BME280;11972;48.078;11.876;2024-02-15T04:40:12;95997.16;;;6.65;100.00
23589;BME280;11972;48.078;11.876;2024-02-15T04:44:13;95994.81;;;6.62;100.00
23589;BME280;11972;48.078;11.876;2024-02-15T04:48:16;95999.69;;;6.57;100.00
23589;BME280;11972;48.078;11.876;2024-02-15T04:52:17;96004.84;;;6.49;100.00
23589;BME280;11972;48.078;11.876;2024-02-15T04:56:17;95992.75;;;6.38;100.00
23589;BME280;11972;48.078;11.876;2024-02-15T05:00:18;95999.66;;;6.29;100.00
23589;BME280;11972;48.078;11.876;2024-02-15T05:04:21;95997.63;;;6.23;100.00
23589;BME280;11972;48.078;11.876;2024-02-15T05:08:21;95997.13;;;6.10;100.00
23589;BME280;11972;48.078;11.876;2024-02-15T05:12:24;95993.69;;;5.90;100.00
23589;BME280;11972;48.078;11.876;2024-02-15T05:16:26;95986.81;;;5.79;100.00
23589;BME280;11972;48.078;11.876;2024-02-15T05:20:26;95993.03;;;5.78;100.00
23589;BME280;11972;48.078;11.876;2024-02-15T05:24:27;95990.94;;;5.82;100.00
23589;BME280;11972;48.078;11.876;2024-02-15T05:28:29;95990.13;;;5.81;100.00
23589;BME280;11972;48.078;11.876;2024-02-15T05:32:29;95982.97;;;5.73;100.00
23589;BME280;11972;48.078;11.876;2024-02-15T05:36:30;95986.28;;;5.66;100.00
23589;BME280;11972;48.078;11.876;2024-02-15T05:40:30;95986.44;;;5.55;100.00
23589;BME280;11972;48.078;11.876;2024-02-15T05:44:31;96000.94;;;5.39;100.00
23589;BME280;11972;48.078;11.876;2024-02-15T05:48:32;96005.47;;;5.18;100.00
23589;BME280;11972;48.078;11.876;2024-02-15T05:52:36;95993.75;;;4.93;100.00
23589;BME280;11972;48.078;11.876;2024-02-15T05:56:37;95990.97;;;4.75;100.00
23589;BME280;11972;48.078;11.876;2024-02-15T06:00:37;95997.28;;;4.63;100.00
23589;BME280;11972;48.078;11.876;2024-02-15T06:04:40;95999.97;;;4.52;100.00
23589;BME280;11972;48.078;11.876;2024-02-15T06:08:41;96003.41;;;4.42;100.00
23589;BME280;11972;48.078;11.876;2024-02-15T06:12:41;96005.16;;;4.32;100.00
23589;BME280;11972;48.078;11.876;2024-02-15T06:16:45;96000.44;;;4.26;100.00
23589;BME280;11972;48.078;11.876;2024-02-15T06:20:45;96000.03;;;4.21;100.00
23589;BME280;11972;48.078;11.876;2024-02-15T06:24:49;96004.81;;;4.16;100.00
23589;BME280;11972;48.078;11.876;2024-02-15T06:28:49;96000.59;;;4.25;100.00
23589;BME280;11972;48.078;11.876;2024-02-15T06:33:08;96005.44;;;4.29;100.00
23589;BME280;11972;48.078;11.876;2024-02-15T06:37:37;96013.28;;;4.29;100.00
23589;BME280;11972;48.078;11.876;2024-02-15T06:41:56;96007.16;;;4.19;100.00
23589;BME280;11972;48.078;11.876;2024-02-15T06:45:56;96016.94;;;4.17;100.00
23589;BME280;11972;48.078;11.876;2024-02-15T06:49:57;96014.44;;;4.15;100.00
23589;BME280;11972;48.078;11.876;2024-02-15T06:53:58;96023.81;;;4.18;100.00
23589;BME280;11972;48.078;11.876;2024-02-15T06:57:58;96025.91;;;4.24;100.00
23589;BME280;11972;48.078;11.876;2024-02-15T07:02:02;96024.41;;;4.31;100.00
23589;BME280;11972;48.078;11.876;2024-02-15T07:06:05;96020.06;;;4.41;100.00
23589;BME280;11972;48.078;11.876;2024-02-15T07:10:06;96036.09;;;4.58;100.00
23589;BME280;11972;48.078;11.876;2024-02-15T07:14:06;96041.16;;;4.90;100.00
23589;BME280;11972;48.078;11.876;2024-02-15T07:18:07;96040.91;;;5.22;100.00
23589;BME280;11972;48.078;11.876;2024-02-15T07:22:08;96032.94;;;5.53;100.00
23589;BME280;11972;48.078;11.876;2024-02-15T07:26:08;96028.47;;;5.82;100.00
23589;BME280;11972;48.078;11.876;2024-02-15T07:30:12;96035.66;;;6.00;100.00
23589;BME280;11972;48.078;11.876;2024-02-15T07:34:13;96034.50;;;6.12;100.00
23589;BME280;11972;48.078;11.876;2024-02-15T07:38:13;96033.41;;;6.14;100.00
23589;BME280;11972;48.078;11.876;2024-02-15T07:42:14;96020.53;;;6.21;100.00
23589;BME280;11972;48.078;11.876;2024-02-15T07:46:14;96015.41;;;6.29;100.00
23589;BME280;11972;48.078;11.876;2024-02-15T07:50:17;96009.59;;;6.35;100.00
23589;BME280;11972;48.078;11.876;2024-02-15T07:54:23;96012.31;;;6.43;100.00
23589;BME280;11972;48.078;11.876;2024-02-15T07:58:24;96004.41;;;6.53;100.00
23589;BME280;11972;48.078;11.876;2024-02-15T08:02:24;96003.53;;;6.62;100.00
23589;BME280;11972;48.078;11.876;2024-02-15T08:06:28;96003.88;;;6.77;100.00
23589;BME280;11972;48.078;11.876;2024-02-15T08:10:32;96001.41;;;6.93;100.00
23589;BME280;11972;48.078;11.876;2024-02-15T08:14:33;95996.34;;;7.10;100.00
23589;BME280;11972;48.078;11.876;2024-02-15T08:18:34;95993.88;;;7.26;100.00
23589;BME280;11972;48.078;11.876;2024-02-15T08:22:35;95993.03;;;7.43;100.00
23589;BME280;11972;48.078;11.876;2024-02-15T08:26:39;95987.63;;;7.63;100.00
23589;BME280;11972;48.078;11.876;2024-02-15T08:30:39;95989.44;;;7.88;100.00
23589;BME280;11972;48.078;11.876;2024-02-15T08:34:41;95980.41;;;8.17;100.00
23589;BME280;11972;48.078;11.876;2024-02-15T08:38:41;95966.41;;;8.42;100.00
23589;BME280;11972;48.078;11.876;2024-02-15T08:42:42;95964.38;;;8.70;100.00
23589;BME280;11972;48.078;11.876;2024-02-15T08:46:43;95958.38;;;8.94;100.00
23589;BME280;11972;48.078;11.876;2024-02-15T08:50:43;95959.06;;;9.21;100.00
23589;BME280;11972;48.078;11.876;2024-02-15T08:54:45;95952.34;;;9.51;100.00
23589;BME280;11972;48.078;11.876;2024-02-15T08:58:46;95952.16;;;9.77;100.00
23589;BME280;11972;48.078;11.876;2024-02-15T09:02:47;95944.50;;;10.07;100.00
23589;BME280;11972;48.078;11.876;2024-02-15T09:06:47;95932.75;;;10.34;100.00
23589;BME280;11972;48.078;11.876;2024-02-15T09:10:49;95931.47;;;10.61;100.00
23589;BME280;11972;48.078;11.876;2024-02-15T09:14:50;95924.44;;;10.84;100.00
23589;BME280;11972;48.078;11.876;2024-02-15T09:18:50;95921.16;;;11.05;100.00
23589;BME280;11972;48.078;11.876;2024-02-15T09:22:51;95911.97;;;11.24;100.00
23589;BME280;11972;48.078;11.876;2024-02-15T09:26:52;95899.25;;;11.42;100.00
23589;BME280;11972;48.078;11.876;2024-02-15T09:30:52;95893.66;;;11.60;100.00
23589;BME280;11972;48.078;11.876;2024-02-15T09:34:53;95891.94;;;11.82;100.00
23589;BME280;11972;48.078;11.876;2024-02-15T09:38:53;95876.47;;;12.09;100.00
23589;BME280;11972;48.078;11.876;2024-02-15T09:42:53;95864.75;;;12.33;100.00
23589;BME280;11972;48.078;11.876;2024-02-15T09:47:05;95859.91;;;12.51;100.00
23589;BME280;11972;48.078;11.876;2024-02-15T09:51:07;95860.06;;;12.64;100.00
23589;BME280;11972;48.078;11.876;2024-02-15T09:55:07;95845.31;;;12.77;100.00
23589;BME280;11972;48.078;11.876;2024-02-15T09:59:13;95840.34;;;12.88;100.00
23589;BME280;11972;48.078;11.876;2024-02-15T10:03:16;95829.16;;;12.93;100.00
23589;BME280;11972;48.078;11.876;2024-02-15T10:07:18;95831.72;;;13.08;100.00
23589;BME280;11972;48.078;11.876;2024-02-15T10:11:19;95823.81;;;13.29;100.00
23589;BME280;11972;48.078;11.876;2024-02-15T10:15:34;95801.88;;;13.42;100.00
23589;BME280;11972;48.078;11.876;2024-02-15T10:19:35;95803.16;;;13.53;100.00
23589;BME280;11972;48.078;11.876;2024-02-15T10:23:36;95799.72;;;13.59;100.00
23589;BME280;11972;48.078;11.876;2024-02-15T10:27:36;95788.59;;;13.70;100.00
23589;BME280;11972;48.078;11.876;2024-02-15T10:31:39;95792.22;;;13.69;100.00
23589;BME280;11972;48.078;11.876;2024-02-15T10:35:41;95781.63;;;13.69;100.00
23589;BME280;11972;48.078;11.876;2024-02-15T10:39:42;95780.22;;;13.73;100.00
23589;BME280;11972;48.078;11.876;2024-02-15T10:43:44;95771.69;;;13.84;100.00
23589;BME280;11972;48.078;11.876;2024-02-15T10:47:45;95768.69;;;13.94;100.00
23589;BME280;11972;48.078;11.876;2024-02-15T10:51:58;95766.09;;;14.07;100.00
23589;BME280;11972;48.078;11.876;2024-02-15T11:00:11;95753.91;;;14.26;100.00
23589;BME280;11972;48.078;11.876;2024-02-15T11:04:21;95732.69;;;14.33;100.00
23589;BME280;11972;48.078;11.876;2024-02-15T11:08:26;95732.75;;;14.53;100.00
23589;BME280;11972;48.078;11.876;2024-02-15T11:12:28;95731.16;;;14.65;100.00
23589;BME280;11972;48.078;11.876;2024-02-15T11:16:39;95718.88;;;14.84;100.00
23589;BME280;11972;48.078;11.876;2024-02-15T11:24:50;95710.91;;;15.10;100.00
23589;BME280;11972;48.078;11.876;2024-02-15T11:28:51;95695.13;;;15.22;100.00
23589;BME280;11972;48.078;11.876;2024-02-15T11:32:54;95692.66;;;15.41;100.00
23589;BME280;11972;48.078;11.876;2024-02-15T11:36:56;95692.59;;;15.54;100.00
23589;BME280;11972;48.078;11.876;2024-02-15T11:45:06;95679.09;;;15.69;100.00
23589;BME280;11972;48.078;11.876;2024-02-15T11:49:14;95668.59;;;15.80;100.00
23589;BME280;11972;48.078;11.876;2024-02-15T11:53:19;95665.91;;;15.87;100.00
23589;BME280;11972;48.078;11.876;2024-02-15T11:57:19;95666.31;;;15.84;100.00
23589;BME280;11972;48.078;11.876;2024-02-15T12:01:36;95654.03;;;15.83;100.00
23589;BME280;11972;48.078;11.876;2024-02-15T12:06:00;95646.69;;;15.78;100.00
23589;BME280;11972;48.078;11.876;2024-02-15T12:10:19;95641.53;;;15.83;100.00
23589;BME280;11972;48.078;11.876;2024-02-15T12:14:38;95624.88;;;15.95;100.00
23589;BME280;11972;48.078;11.876;2024-02-15T12:18:57;95628.59;;;15.94;100.00
23589;BME280;11972;48.078;11.876;2024-02-15T12:22:58;95615.13;;;15.75;100.00
23589;BME280;11972;48.078;11.876;2024-02-15T12:27:01;95611.53;;;15.56;100.00
23589;BME280;11972;48.078;11.876;2024-02-15T12:31:03;95605.75;;;15.66;100.00
23589;BME280;11972;48.078;11.876;2024-02-15T12:35:24;95602.69;;;15.69;100.00
23589;BME280;11972;48.078;11.876;2024-02-15T12:39:25;95595.66;;;15.81;100.00
23589;BME280;11972;48.078;11.876;2024-02-15T12:43:28;95606.06;;;15.90;100.00
23589;BME280;11972;48.078;11.876;2024-02-15T12:47:30;95601.13;;;15.93;100.00
23589;BME280;11972;48.078;11.876;2024-02-15T12:51:30;95589.22;;;15.96;100.00
23589;BME280;11972;48.078;11.876;2024-02-15T12:55:36;95581.75;;;16.11;100.00
23589;BME280;11972;48.078;11.876;2024-02-15T12:59:37;95577.63;;;16.15;100.00
23589;BME280;11972;48.078;11.876;2024-02-15T13:03:38;95575.47;;;16.30;100.00
23589;BME280;11972;48.078;11.876;2024-02-15T13:07:38;95567.53;;;16.49;100.00
23589;BME280;11972;48.078;11.876;2024-02-15T13:11:38;95570.16;;;16.55;100.00
23589;BME280;11972;48.078;11.876;2024-02-15T13:15:39;95564.16;;;16.60;100.00
23589;BME280;11972;48.078;11.876;2024-02-15T13:19:47;95557.63;;;16.56;100.00
23589;BME280;11972;48.078;11.876;2024-02-15T13:23:49;95561.44;;;16.42;100.00
23589;BME280;11972;48.078;11.876;2024-02-15T13:27:50;95551.59;;;16.42;100.00
23589;BME280;11972;48.078;11.876;2024-02-15T13:31:51;95552.88;;;16.33;100.00
23589;BME280;11972;48.078;11.876;2024-02-15T13:35:51;95550.72;;;16.23;100.00
23589;BME280;11972;48.078;11.876;2024-02-15T13:39:52;95550.81;;;16.10;100.00
23589;BME280;11972;48.078;11.876;2024-02-15T13:43:52;95544.56;;;15.98;100.00
23589;BME280;11972;48.078;11.876;2024-02-15T13:47:53;95536.03;;;15.82;100.00
23589;BME280;11972;48.078;11.876;2024-02-15T13:51:56;95534.84;;;15.72;100.00
23589;BME280;11972;48.078;11.876;2024-02-15T13:56:01;95534.69;;;15.67;100.00
23589;BME280;11972;48.078;11.876;2024-02-15T14:00:02;95536.94;;;15.63;100.00
23589;BME280;11972;48.078;11.876;2024-02-15T14:04:02;95536.13;;;15.62;100.00
23589;BME280;11972;48.078;11.876;2024-02-15T14:08:03;95533.25;;;15.64;100.00
23589;BME280;11972;48.078;11.876;2024-02-15T14:12:09;95529.59;;;15.65;100.00
23589;BME280;11972;48.078;11.876;2024-02-15T14:16:09;95533.28;;;15.57;100.00
23589;BME280;11972;48.078;11.876;2024-02-15T14:20:10;95530.06;;;15.42;100.00
23589;BME280;11972;48.078;11.876;2024-02-15T14:24:14;95532.56;;;15.30;100.00
23589;BME280;11972;48.078;11.876;2024-02-15T14:28:14;95522.38;;;15.27;100.00
23589;BME280;11972;48.078;11.876;2024-02-15T14:32:14;95530.53;;;15.32;100.00
23589;BME280;11972;48.078;11.876;2024-02-15T14:36:33;95533.38;;;15.37;100.00
23589;BME280;11972;48.078;11.876;2024-02-15T14:40:44;95521.44;;;15.47;100.00
23589;BME280;11972;48.078;11.876;2024-02-15T14:44:55;95520.00;;;15.51;100.00
23589;BME280;11972;48.078;11.876;2024-02-15T14:48:55;95528.84;;;15.45;100.00
23589;BME280;11972;48.078;11.876;2024-02-15T14:52:57;95530.13;;;15.35;100.00
23589;BME280;11972;48.078;11.876;2024-02-15T14:56:58;95533.59;;;15.29;100.00
23589;BME280;11972;48.078;11.876;2024-02-15T15:00:59;95527.53;;;15.16;100.00
23589;BME280;11972;48.078;11.876;2024-02-15T15:05:00;95534.31;;;15.11;100.00
23589;BME280;11972;48.078;11.876;2024-02-15T15:09:19;95531.41;;;15.13;100.00
23589;BME280;11972;48.078;11.876;2024-02-15T15:13:38;95539.63;;;15.11;100.00
23589;BME280;11972;48.078;11.876;2024-02-15T15:17:38;95534.72;;;15.08;100.00
23589;BME280;11972;48.078;11.876;2024-02-15T15:21:39;95531.06;;;15.03;100.00
23589;BME280;11972;48.078;11.876;2024-02-15T15:25:39;95532.50;;;14.92;100.00
23589;BME280;11972;48.078;11.876;2024-02-15T15:29:40;95526.22;;;14.73;100.00
23589;BME280;11972;48.078;11.876;2024-02-15T15:33:41;95534.41;;;14.52;100.00
23589;BME280;11972;48.078;11.876;2024-02-15T15:37:41;95521.13;;;14.25;100.00
23589;BME280;11972;48.078;11.876;2024-02-15T15:41:45;95523.78;;;14.05;100.00
23589;BME280;11972;48.078;11.876;2024-02-15T15:45:46;95530.31;;;13.89;100.00
23589;BME280;11972;48.078;11.876;2024-02-15T15:49:47;95529.44;;;13.69;100.00
23589;BME280;11972;48.078;11.876;2024-02-15T15:53:48;95529.81;;;13.46;100.00
23589;BME280;11972;48.078;11.876;2024-02-15T15:57:49;95526.47;;;13.24;100.00
23589;BME280;11972;48.078;11.876;2024-02-15T16:01:52;95536.78;;;13.06;100.00
23589;BME280;11972;48.078;11.876;2024-02-15T16:05:53;95533.81;;;12.87;100.00
23589;BME280;11972;48.078;11.876;2024-02-15T16:09:53;95536.94;;;12.63;100.00
23589;BME280;11972;48.078;11.876;2024-02-15T16:13:55;95531.66;;;12.35;100.00
23589;BME280;11972;48.078;11.876;2024-02-15T16:17:55;95538.94;;;12.05;100.00
23589;BME280;11972;48.078;11.876;2024-02-15T16:21:55;95547.38;;;11.72;100.00
23589;BME280;11972;48.078;11.876;2024-02-15T16:25:56;95550.75;;;11.45;100.00
23589;BME280;11972;48.078;11.876;2024-02-15T16:29:59;95562.66;;;11.19;100.00
23589;BME280;11972;48.078;11.876;2024-02-15T16:34:00;95564.41;;;10.97;100.00
23589;BME280;11972;48.078;11.876;2024-02-15T16:38:01;95571.09;;;10.78;100.00
23589;BME280;11972;48.078;11.876;2024-02-15T16:42:01;95589.44;;;10.57;100.00
23589;BME280;11972;48.078;11.876;2024-02-15T16:46:03;95579.59;;;10.36;100.00
23589;BME280;11972;48.078;11.876;2024-02-15T16:50:05;95593.09;;;10.18;100.00
23589;BME280;11972;48.078;11.876;2024-02-15T16:54:07;95603.13;;;10.00;100.00
23589;BME280;11972;48.078;11.876;2024-02-15T16:58:08;95609.22;;;9.77;100.00
23589;BME280;11972;48.078;11.876;2024-02-15T17:02:10;95614.31;;;9.56;100.00
23589;BME280;11972;48.078;11.876;2024-02-15T17:06:11;95615.72;;;9.35;100.00
23589;BME280;11972;48.078;11.876;2024-02-15T17:10:11;95619.88;;;9.22;100.00
23589;BME280;11972;48.078;11.876;2024-02-15T17:14:12;95622.09;;;9.10;100.00
23589;BME280;11972;48.078;11.876;2024-02-15T17:18:33;95621.47;;;9.00;100.00
23589;BME280;11972;48.078;11.876;2024-02-15T17:22:34;95625.31;;;8.89;100.00
23589;BME280;11972;48.078;11.876;2024-02-15T17:26:34;95624.16;;;8.83;100.00
23589;BME280;11972;48.078;11.876;2024-02-15T17:30:34;95624.16;;;8.75;100.00
23589;BME280;11972;48.078;11.876;2024-02-15T17:34:35;95621.53;;;8.67;100.00
23589;BME280;11972;48.078;11.876;2024-02-15T17:38:37;95626.19;;;8.57;100.00
23589;BME280;11972;48.078;11.876;2024-02-15T17:42:38;95625.03;;;8.43;100.00
23589;BME280;11972;48.078;11.876;2024-02-15T17:46:40;95622.22;;;8.28;100.00
23589;BME280;11972;48.078;11.876;2024-02-15T17:50:40;95627.31;;;8.13;100.00
23589;BME280;11972;48.078;11.876;2024-02-15T17:54:42;95619.75;;;7.94;100.00
23589;BME280;11972;48.078;11.876;2024-02-15T17:58:43;95621.53;;;7.77;100.00
23589;BME280;11972;48.078;11.876;2024-02-15T18:02:45;95617.25;;;7.68;100.00
23589;BME280;11972;48.078;11.876;2024-02-15T18:06:48;95622.81;;;7.57;100.00
23589;BME280;11972;48.078;11.876;2024-02-15T18:10:49;95624.94;;;7.45;100.00
23589;BME280;11972;48.078;11.876;2024-02-15T18:14:49;95628.47;;;7.28;100.00
23589;BME280;11972;48.078;11.876;2024-02-15T18:18:50;95621.72;;;7.17;100.00
23589;BME280;11972;48.078;11.876;2024-02-15T18:22:52;95616.59;;;7.07;100.00
23589;BME280;11972;48.078;11.876;2024-02-15T18:26:52;95616.59;;;7.07;100.00
23589;BME280;11972;48.078;11.876;2024-02-15T18:30:56;95608.06;;;7.05;100.00
23589;BME280;11972;48.078;11.876;2024-02-15T18:34:56;95606.41;;;7.04;100.00
23589;BME280;11972;48.078;11.876;2024-02-15T18:38:59;95609.19;;;7.03;100.00
23589;BME280;11972;48.078;11.876;2024-02-15T18:42:59;95600.34;;;7.04;100.00
23589;BME280;11972;48.078;11.876;2024-02-15T18:46:59;95602.00;;;7.05;100.00
23589;BME280;11972;48.078;11.876;2024-02-15T18:51:00;95602.00;;;7.05;100.00
23589;BME280;11972;48.078;11.876;2024-02-15T18:55:00;95596.41;;;7.00;100.00
23589;BME280;11972;48.078;11.876;2024-02-15T18:59:00;95582.41;;;6.99;100.00
23589;BME280;11972;48.078;11.876;2024-02-15T19:03:07;95590.16;;;7.01;100.00
23589;BME280;11972;48.078;11.876;2024-02-15T19:07:07;95581.59;;;6.99;100.00
23589;BME280;11972;48.078;11.876;2024-02-15T19:11:08;95581.59;;;6.99;100.00
23589;BME280;11972;48.078;11.876;2024-02-15T19:15:09;95589.63;;;6.97;100.00
23589;BME280;11972;48.078;11.876;2024-02-15T19:19:09;95583.56;;;6.96;100.00
23589;BME280;11972;48.078;11.876;2024-02-15T19:23:11;95578.31;;;6.96;100.00
23589;BME280;11972;48.078;11.876;2024-02-15T19:27:12;95576.69;;;6.95;100.00
23589;BME280;11972;48.078;11.876;2024-02-15T19:31:12;95578.31;;;6.96;100.00
23589;BME280;11972;48.078;11.876;2024-02-15T19:35:14;95574.41;;;7.01;100.00
23589;BME280;11972;48.078;11.876;2024-02-15T19:39:14;95577.34;;;7.06;100.00
23589;BME280;11972;48.078;11.876;2024-02-15T19:43:15;95578.69;;;7.10;100.00
23589;BME280;11972;48.078;11.876;2024-02-15T19:47:16;95573.78;;;7.15;100.00
23589;BME280;11972;48.078;11.876;2024-02-15T19:51:18;95569.84;;;7.19;100.00
23589;BME280;11972;48.078;11.876;2024-02-15T19:55:19;95567.56;;;7.24;100.00
23589;BME280;11972;48.078;11.876;2024-02-15T19:59:19;95560.84;;;7.30;100.00
23589;BME280;11972;48.078;11.876;2024-02-15T20:03:20;95563.81;;;7.35;100.00
23589;BME280;11972;48.078;11.876;2024-02-15T20:07:20;95562.69;;;7.37;100.00
23589;BME280;11972;48.078;11.876;2024-02-15T20:11:28;95563.00;;;7.34;100.00
23589;BME280;11972;48.078;11.876;2024-02-15T20:15:28;95554.59;;;7.31;100.00
23589;BME280;11972;48.078;11.876;2024-02-15T20:19:29;95560.16;;;7.28;100.00
23589;BME280;11972;48.078;11.876;2024-02-15T20:23:30;95558.03;;;7.23;100.00
23589;BME280;11972;48.078;11.876;2024-02-15T20:27:31;95556.72;;;7.19;100.00
23589;BME280;11972;48.078;11.876;2024-02-15T20:31:32;95556.06;;;7.17;100.00
23589;BME280;11972;48.078;11.876;2024-02-15T20:35:33;95555.88;;;7.10;100.00
23589;BME280;11972;48.078;11.876;2024-02-15T20:39:33;95553.91;;;7.04;100.00
23589;BME280;11972;48.078;11.876;2024-02-15T20:43:35;95552.38;;;6.93;100.00
23589;BME280;11972;48.078;11.876;2024-02-15T20:47:38;95544.47;;;6.85;100.00
23589;BME280;11972;48.078;11.876;2024-02-15T20:51:38;95554.28;;;6.75;100.00
23589;BME280;11972;48.078;11.876;2024-02-15T20:55:39;95543.38;;;6.62;100.00
23589;BME280;11972;48.078;11.876;2024-02-15T20:59:40;95547.47;;;6.56;100.00
23589;BME280;11972;48.078;11.876;2024-02-15T21:03:41;95534.13;;;6.50;100.00
23589;BME280;11972;48.078;11.876;2024-02-15T21:07:46;95538.38;;;6.42;100.00
23589;BME280;11972;48.078;11.876;2024-02-15T21:11:48;95531.28;;;6.35;100.00